Time;durP1;ratioP1;P1;durP2;ratioP2;P2;SDS_P1;SDS_P2;PMS_P1;PMS_P2;Temp;Humidity;BMP_temperature;BMP_pressure;BME280_temperature;BME280_humidity;BME280_pressure;Samples;Min_cycle;Max_cycle;Signal;HPM_P1;HPM_P2
2023/10/01 00:00:43;;;;;;;17.40;5.38;;;;;;;9.37;100.00;101641.59;4935764;28;20492;-70
2023/10/01 00:03:10;;;;;;;12.02;5.32;;;;;;;9.31;100.00;101634.06;4935954;29;20106;-68
2023/10/01 00:05:39;;;;;;;17.00;5.20;;;;;;;9.11;100.00;101624.13;4936235;29;20131;-70
2023/10/01 00:08:08;;;;;;;15.55;5.05;;;;;;;8.99;100.00;101615.28;4936164;29;20098;-74
2023/10/01 00:10:35;;;;;;;15.13;6.22;;;;;;;8.97;100.00;101612.75;4935646;28;20414;-70
2023/10/01 00:13:02;;;;;;;14.43;5.32;;;;;;;8.87;100.00;101606.47;4935720;29;20051;-70
2023/10/01 00:15:30;;;;;;;21.10;5.55;;;;;;;8.83;100.00;101607.72;4935536;29;20102;-70
2023/10/01 00:17:57;;;;;;;15.63;5.20;;;;;;;8.65;100.00;101593.19;4935262;29;20047;-70
2023/10/01 00:20:25;;;;;;;16.10;5.97;;;;;;;8.53;100.00;101579.81;4935474;29;20132;-65
2023/10/01 00:22:57;;;;;;;18.20;5.80;;;;;;;8.52;100.00;101580.81;4936979;29;20577;-65
2023/10/01 00:25:24;;;;;;;20.00;5.90;;;;;;;8.48;100.00;101579.38;4936703;29;20051;-66
2023/10/01 00:27:51;;;;;;;17.13;5.55;;;;;;;8.51;100.00;101581.78;4936654;29;20506;-65
2023/10/01 00:30:18;;;;;;;12.00;4.82;;;;;;;8.56;100.00;101590.28;4936435;29;20048;-64
2023/10/01 00:32:44;;;;;;;15.98;5.40;;;;;;;8.60;100.00;101582.84;4936056;29;20099;-65
2023/10/01 00:35:11;;;;;;;15.82;5.38;;;;;;;8.72;100.00;101589.03;4936268;29;20048;-65
2023/10/01 00:37:38;;;;;;;17.33;5.32;;;;;;;8.71;100.00;101590.84;4935621;29;20559;-65
2023/10/01 00:40:08;;;;;;;15.65;5.32;;;;;;;8.74;100.00;101589.72;4936950;29;20052;-66
2023/10/01 00:42:36;;;;;;;14.00;5.20;;;;;;;8.65;100.00;101591.34;4936642;29;20067;-65
2023/10/01 00:45:08;;;;;;;14.32;5.43;;;;;;;8.76;100.00;101588.63;4936317;28;20579;-65
2023/10/01 00:47:40;;;;;;;17.92;5.45;;;;;;;8.69;100.00;101581.25;4934544;29;20134;-65
2023/10/01 00:50:12;;;;;;;14.05;4.57;;;;;;;8.61;100.00;101574.72;4936145;29;20052;-65
2023/10/01 00:52:40;;;;;;;10.98;5.03;;;;;;;8.68;100.00;101576.84;4936099;29;20052;-65
2023/10/01 00:55:09;;;;;;;22.27;5.88;;;;;;;8.61;100.00;101574.72;4936161;29;20122;-65
2023/10/01 00:57:37;;;;;;;14.63;5.00;;;;;;;8.66;100.00;101579.66;4936756;29;20054;-65
2023/10/01 01:00:09;;;;;;;15.30;5.05;;;;;;;8.72;100.00;101578.31;4935972;29;20412;-66
2023/10/01 01:02:38;;;;;;;11.60;5.00;;;;;;;8.69;100.00;101578.56;4935731;29;20111;-65
2023/10/01 01:08:54;;;;;;;14.32;4.57;;;;;;;8.80;100.00;101581.19;4935193;29;20070;-66
2023/10/01 01:11:22;;;;;;;15.43;4.85;;;;;;;8.70;100.00;101573.09;4934687;29;20173;-69
2023/10/01 01:13:51;;;;;;;12.70;4.70;;;;;;;8.69;100.00;101575.91;4934195;29;20131;-69
2023/10/01 01:16:19;;;;;;;12.85;4.95;;;;;;;8.68;100.00;101569.72;4934253;29;20107;-65
2023/10/01 01:18:47;;;;;;;15.07;5.07;;;;;;;8.57;100.00;101559.03;4940753;28;20681;-65
2023/10/01 01:21:13;;;;;;;16.70;4.78;;;;;;;8.45;100.00;101542.16;4953278;28;20047;-65
2023/10/01 01:23:46;;;;;;;14.15;5.30;;;;;;;8.41;100.00;101534.53;4953708;28;20043;-65
2023/10/01 01:26:13;;;;;;;12.13;4.10;;;;;;;8.45;100.00;101541.31;4953682;28;20047;-66
2023/10/01 01:28:41;;;;;;;10.48;4.53;;;;;;;8.40;100.00;101539.03;4953108;28;20063;-64
2023/10/01 01:31:10;;;;;;;13.25;4.28;;;;;;;8.44;100.00;101536.97;4953137;28;20073;-64
2023/10/01 01:33:52;;;;;;;13.57;4.72;;;;;;;8.53;100.00;101544.22;4951897;28;20111;-64
2023/10/01 01:36:20;;;;;;;13.75;4.40;;;;;;;8.61;100.00;101555.13;4953976;28;20071;-65
2023/10/01 01:39:27;;;;;;;10.90;3.72;;;;;;;8.75;100.00;101559.34;4953597;28;20490;-65
2023/10/01 01:41:54;;;;;;;11.45;4.13;;;;;;;8.81;100.00;101565.00;4943636;28;20496;-64
2023/10/01 01:44:22;;;;;;;14.40;4.60;;;;;;;8.77;100.00;101568.91;4953223;28;20051;-65
2023/10/01 01:46:49;;;;;;;9.23;3.90;;;;;;;8.82;100.00;101566.72;4953073;28;20046;-65
2023/10/01 01:49:18;;;;;;;16.98;4.50;;;;;;;8.89;100.00;101567.06;4953160;28;20514;-65
2023/10/01 01:51:57;;;;;;;13.73;4.05;;;;;;;8.89;100.00;101572.41;4953427;28;20047;-64
2023/10/01 01:54:27;;;;;;;12.68;3.97;;;;;;;8.85;100.00;101571.81;4953974;28;20411;-64
2023/10/01 01:56:57;;;;;;;12.00;3.30;;;;;;;8.83;100.00;101559.53;4953243;28;20532;-65
2023/10/01 01:59:27;;;;;;;18.27;4.60;;;;;;;8.66;100.00;101549.41;4954273;28;20069;-64
2023/10/01 02:01:57;;;;;;;10.63;3.67;;;;;;;8.61;100.00;101534.59;4954052;28;20046;-66
2023/10/01 02:04:25;;;;;;;12.52;4.03;;;;;;;8.59;100.00;101547.22;4952470;28;20051;-63
2023/10/01 02:06:54;;;;;;;11.20;4.18;;;;;;;8.66;100.00;101542.22;4953657;28;20051;-64
2023/10/01 02:09:24;;;;;;;15.25;4.18;;;;;;;8.72;100.00;101544.38;4953117;28;20039;-64
2023/10/01 02:11:52;;;;;;;11.48;3.78;;;;;;;8.70;100.00;101546.34;4953542;28;20047;-65
2023/10/01 02:14:31;;;;;;;13.07;4.10;;;;;;;8.75;100.00;101549.50;4953691;28;20511;-66
2023/10/01 02:17:13;;;;;;;9.23;3.78;;;;;;;8.77;100.00;101552.88;4952492;28;20054;-66
2023/10/01 02:19:41;;;;;;;10.38;4.22;;;;;;;8.83;100.00;101552.34;4953471;28;20046;-65
2023/10/01 02:22:08;;;;;;;10.73;3.80;;;;;;;8.82;100.00;101550.69;4952807;28;20051;-64
2023/10/01 02:27:18;;;;;;;14.85;3.97;;;;;;;8.84;100.00;101543.34;4953463;28;20522;-64
2023/10/01 02:32:35;;;;;;;13.88;3.90;;;;;;;8.80;100.00;101538.41;4954062;28;20047;-65
2023/10/01 02:35:33;;;;;;;11.05;3.65;;;;;;;8.84;100.00;101542.50;4952432;28;20054;-65
2023/10/01 02:37:49;;;;;;;12.85;4.05;;;;;;;8.73;100.00;101537.22;4953493;28;20051;-65
2023/10/01 02:40:18;;;;;;;14.52;4.18;;;;;;;8.67;100.00;101535.03;4952903;28;20047;-66
2023/10/01 02:42:49;;;;;;;15.90;4.15;;;;;;;8.63;100.00;101517.56;4952948;28;20067;-65
2023/10/01 02:45:32;;;;;;;;;;;;;;;8.63;100.00;101517.56;4953404;28;20082;-64
2023/10/01 02:48:13;;;;;;;;;;;;;;;8.54;100.00;101511.16;4953125;28;19922;-64
2023/10/01 02:50:45;;;;;;;16.67;4.15;;;;;;;8.48;100.00;101509.00;4952460;28;19922;-66
2023/10/01 02:53:14;;;;;;;13.05;3.55;;;;;;;8.44;100.00;101496.84;4952788;28;20478;-66
2023/10/01 02:55:46;;;;;;;13.82;3.80;;;;;;;8.44;100.00;101503.06;4952385;28;20075;-66
2023/10/01 02:58:27;;;;;;;11.30;3.63;;;;;;;8.39;100.00;101489.19;4952402;28;20102;-66
2023/10/01 03:00:55;;;;;;;13.77;3.80;;;;;;;8.50;100.00;101499.84;4952612;28;20052;-70
2023/10/01 03:03:31;;;;;;;14.52;4.00;;;;;;;8.51;100.00;101498.03;4951561;28;20106;-68
2023/10/01 03:06:08;;;;;;;12.95;3.78;;;;;;;8.55;100.00;101503.00;4951330;28;20046;-69
2023/10/01 03:11:22;;;;;;;13.38;3.83;;;;;;;8.47;100.00;101497.44;4953153;28;20062;-65
2023/10/01 03:13:51;;;;;;;12.73;3.53;;;;;;;8.57;100.00;101511.75;4952393;28;20043;-65
2023/10/01 03:19:25;;;;;;;16.85;3.88;;;;;;;8.51;100.00;101506.06;4943749;28;20142;-65
2023/10/01 03:24:46;;;;;;;9.57;3.35;;;;;;;8.57;100.00;101505.53;4932604;29;20099;-65
2023/10/01 03:27:27;;;;;;;14.77;3.72;;;;;;;8.52;100.00;101505.91;4932671;29;20055;-66
2023/10/01 03:30:00;;;;;;;11.10;3.90;;;;;;;8.61;100.00;101515.03;4936066;29;20111;-65
2023/10/01 03:32:29;;;;;;;10.23;3.80;;;;;;;8.63;100.00;101504.19;4936273;29;20389;-65
2023/10/01 03:34:58;;;;;;;14.90;4.05;;;;;;;8.61;100.00;101510.50;4936846;29;20098;-68
2023/10/01 03:37:28;;;;;;;8.65;3.45;;;;;;;8.64;100.00;101513.88;4935686;29;20106;-66
2023/10/01 03:40:07;;;;;;;;;;;;;;;8.66;100.00;101519.97;4937122;29;20496;-66
2023/10/01 03:42:37;;;;;;;15.52;3.85;;;;;;;8.68;100.00;101537.59;4936031;29;20288;-65
2023/10/01 03:47:59;;;;;;;15.20;3.83;;;;;;;8.70;100.00;101524.94;4935822;29;20497;-68
2023/10/01 03:50:25;;;;;;;9.73;3.50;;;;;;;8.62;100.00;101514.03;4935920;29;20052;-69
2023/10/01 03:52:54;;;;;;;11.25;3.22;;;;;;;8.64;100.00;101508.53;4936527;29;20043;-70
2023/10/01 03:55:27;;;;;;;9.75;3.80;;;;;;;8.60;100.00;101513.31;4943279;29;20397;-62
2023/10/01 04:03:13;;;;;;;13.15;3.75;;;;;;;8.46;100.00;101495.72;4952939;29;20073;-62
2023/10/01 04:05:44;;;;;;;15.70;3.42;;;;;;;8.45;100.00;101487.84;4952593;29;20103;-62
2023/10/01 04:08:11;;;;;;;10.80;3.47;;;;;;;8.40;100.00;101490.03;4952355;29;20047;-62
2023/10/01 04:10:39;;;;;;;12.10;3.78;;;;;;;8.42;100.00;101496.97;4951903;28;20051;-62
2023/10/01 04:13:13;;;;;;;13.00;3.85;;;;;;;8.37;100.00;101486.66;4945248;29;20567;-66
2023/10/01 04:15:41;;;;;;;12.32;3.72;;;;;;;8.13;100.00;101452.13;4935787;29;20047;-64
2023/10/01 04:20:48;;;;;;;15.75;4.22;;;;;;;8.08;100.00;101451.63;4954049;28;20427;-65
2023/10/01 04:23:23;;;;;;;13.50;3.58;;;;;;;8.23;100.00;101467.41;4953829;28;20067;-66
2023/10/01 04:25:51;;;;;;;11.00;3.92;;;;;;;8.40;100.00;101477.53;4954429;28;20106;-65
2023/10/01 04:28:18;;;;;;;16.95;4.43;;;;;;;8.35;100.00;101477.91;4954455;28;20078;-67
2023/10/01 04:30:51;;;;;;;15.77;4.30;;;;;;;8.19;100.00;101468.59;4954069;28;20086;-66
2023/10/01 04:33:23;;;;;;;13.30;3.92;;;;;;;8.24;100.00;101466.41;4953865;28;20055;-66
2023/10/01 04:35:58;;;;;;;14.75;3.38;;;;;;;8.37;100.00;101484.00;4954035;28;20047;-66
2023/10/01 04:38:29;;;;;;;12.43;3.97;;;;;;;8.34;100.00;101486.06;4953868;28;20051;-65
2023/10/01 04:40:57;;;;;;;19.48;4.05;;;;;;;8.37;100.00;101489.34;4953530;28;20152;-66
2023/10/01 04:43:34;;;;;;;16.33;3.92;;;;;;;8.34;100.00;101494.09;4954198;28;20109;-65
2023/10/01 04:46:08;;;;;;;12.63;3.90;;;;;;;8.38;100.00;101488.34;4953997;28;20047;-66
2023/10/01 04:48:39;;;;;;;16.50;3.67;;;;;;;8.43;100.00;101485.28;4953880;28;20051;-66
2023/10/01 04:51:09;;;;;;;13.48;3.65;;;;;;;8.47;100.00;101486.75;4953234;28;20069;-65
2023/10/01 04:53:35;;;;;;;12.95;3.83;;;;;;;8.50;100.00;101490.97;4953933;28;20110;-66
2023/10/01 04:56:05;;;;;;;16.00;4.43;;;;;;;8.43;100.00;101493.31;4953151;28;20047;-65
2023/10/01 04:58:36;;;;;;;15.40;4.38;;;;;;;8.35;100.00;101495.78;4952983;28;20478;-66
2023/10/01 05:01:12;;;;;;;10.95;4.63;;;;;;;8.43;100.00;101495.13;4953308;28;20443;-65
2023/10/01 05:03:39;;;;;;;19.55;5.78;;;;;;;8.45;100.00;101502.06;4953466;28;20419;-65
2023/10/01 05:06:15;;;;;;;19.27;4.05;;;;;;;8.45;100.00;101501.22;4954144;28;20439;-66
2023/10/01 05:08:43;;;;;;;14.05;4.00;;;;;;;8.51;100.00;101506.06;4954541;28;20075;-66
2023/10/01 05:11:13;;;;;;;10.60;3.97;;;;;;;8.47;100.00;101497.44;4954250;28;20073;-66
2023/10/01 05:13:41;;;;;;;14.65;3.85;;;;;;;8.38;100.00;101498.19;4954078;28;20388;-66
2023/10/01 05:16:12;;;;;;;12.35;3.90;;;;;;;8.46;100.00;101506.44;4954483;28;20075;-65
2023/10/01 05:18:43;;;;;;;12.73;4.15;;;;;;;8.56;100.00;101509.19;4948819;28;20582;-65
2023/10/01 05:21:13;;;;;;;16.42;3.88;;;;;;;8.50;100.00;101513.22;4934960;29;20301;-66
2023/10/01 05:23:40;;;;;;;10.85;4.38;;;;;;;8.48;100.00;101512.50;4934676;29;20079;-65
2023/10/01 05:26:08;;;;;;;13.45;3.85;;;;;;;8.48;100.00;101512.50;4935050;29;20519;-65
2023/10/01 05:28:36;;;;;;;10.60;4.22;;;;;;;8.59;100.00;101511.63;4933967;29;20134;-64
2023/10/01 05:31:24;;;;;;;13.07;4.50;;;;;;;8.66;100.00;101515.47;4935389;29;20047;-65
2023/10/01 05:33:52;;;;;;;14.40;4.40;;;;;;;8.72;100.00;101519.47;4935217;29;20048;-64
2023/10/01 05:36:19;;;;;;;16.60;4.93;;;;;;;8.72;100.00;101516.78;4934076;29;20436;-64
2023/10/01 05:38:46;;;;;;;20.42;4.30;;;;;;;8.84;100.00;101532.66;4934859;29;20051;-64
2023/10/01 05:41:16;;;;;;;14.30;4.50;;;;;;;8.91;100.00;101538.31;4933633;29;20067;-65
2023/10/01 05:43:43;;;;;;;11.53;4.10;;;;;;;8.95;100.00;101539.75;4934665;29;20111;-66
2023/10/01 05:46:10;;;;;;;11.13;4.13;;;;;;;8.86;100.00;101545.91;4934997;29;20047;-65
2023/10/01 05:48:42;;;;;;;13.38;3.95;;;;;;;8.83;100.00;101544.34;4933153;29;20055;-65
2023/10/01 05:51:19;;;;;;;15.80;4.70;;;;;;;8.88;100.00;101537.75;4933693;29;20483;-65
2023/10/01 05:53:48;;;;;;;15.77;4.90;;;;;;;8.80;100.00;101544.59;4933234;29;20078;-65
2023/10/01 05:56:15;;;;;;;12.43;4.28;;;;;;;8.84;100.00;101538.00;4933987;29;20056;-64
2023/10/01 05:58:44;;;;;;;17.13;4.07;;;;;;;8.96;100.00;101529.94;4934111;29;20044;-64
2023/10/01 06:01:15;;;;;;;16.88;5.13;;;;;;;9.09;100.00;101536.78;4934390;29;20389;-64
2023/10/01 06:03:49;;;;;;;17.48;4.45;;;;;;;9.13;100.00;101532.03;4934374;29;20045;-66
2023/10/01 06:06:25;;;;;;;17.98;4.82;;;;;;;9.00;100.00;101536.72;4934276;29;20059;-65
2023/10/01 06:08:58;;;;;;;17.17;4.78;;;;;;;9.14;100.00;101538.22;4933116;29;20107;-65
2023/10/01 06:11:41;;;;;;;14.95;4.40;;;;;;;9.16;100.00;101531.75;4934479;29;20059;-64
2023/10/01 06:15:08;;;;;;;17.25;3.88;;;;;;;9.20;100.00;101537.72;4934077;29;20055;-66
2023/10/01 06:17:00;;;;;;;12.23;4.03;;;;;;;9.31;100.00;101541.19;4927533;29;20068;-65
2023/10/01 06:19:28;;;;;;;14.32;3.38;;;;;;;9.52;100.00;101561.75;4933019;29;20052;-65
2023/10/01 06:22:12;;;;;;;13.32;3.67;;;;;;;9.60;100.00;101567.28;4934218;29;20051;-65
2023/10/01 06:24:40;;;;;;;12.05;4.78;;;;;;;9.72;100.00;101586.81;4933523;29;20047;-66
2023/10/01 06:27:09;;;;;;;7.38;3.35;;;;;;;9.99;100.00;101588.88;4933885;29;20043;-65
2023/10/01 06:29:49;;;;;;;9.15;3.63;;;;;;;10.03;100.00;101596.53;4933428;29;20513;-65
2023/10/01 06:32:17;;;;;;;13.65;4.22;;;;;;;10.07;100.00;101607.00;4933686;29;20134;-66
2023/10/01 06:34:45;;;;;;;14.68;4.65;;;;;;;10.15;100.00;101601.78;4933549;29;20047;-66
2023/10/01 06:37:12;;;;;;;8.27;3.58;;;;;;;10.23;100.00;101612.66;4934052;29;20047;-63
2023/10/01 06:39:41;;;;;;;14.38;4.78;;;;;;;10.39;100.00;101612.16;4932947;29;20047;-66
2023/10/01 06:42:20;;;;;;;12.35;4.70;;;;;;;10.56;100.00;101611.53;4933086;29;20472;-67
2023/10/01 06:44:54;;;;;;;16.42;3.90;;;;;;;10.76;100.00;101615.09;4933031;29;20066;-67
2023/10/01 06:47:23;;;;;;;14.35;3.92;;;;;;;10.77;100.00;101619.47;4931543;29;20378;-67
2023/10/01 06:50:28;;;;;;;12.88;4.30;;;;;;;10.77;100.00;101622.16;4932633;29;20047;-66
2023/10/01 06:52:46;;;;;;;10.95;3.42;;;;;;;10.86;100.00;101620.44;4929450;29;20106;-66
2023/10/01 06:55:25;;;;;;;12.18;4.13;;;;;;;10.73;100.00;101616.22;4932611;29;20493;-65
2023/10/01 06:57:55;;;;;;;13.45;3.80;;;;;;;10.78;100.00;101612.25;4933293;29;20044;-66
2023/10/01 07:00:22;;;;;;;14.10;3.55;;;;;;;10.94;100.00;101621.47;4932585;29;20103;-67
2023/10/01 07:02:49;;;;;;;15.40;3.90;;;;;;;11.12;100.00;101628.81;4932912;29;20052;-67
2023/10/01 07:05:20;;;;;;;15.63;3.67;;;;;;;11.40;100.00;101630.63;4937125;29;20051;-66
2023/10/01 07:07:48;;;;;;;10.20;3.60;;;;;;;11.59;100.00;101628.91;4936498;29;20058;-66
2023/10/01 07:10:19;;;;;;;11.88;3.40;;;;;;;11.90;100.00;101633.09;4936763;29;20454;-65
2023/10/01 07:13:04;;;;;;;7.70;3.85;;;;;;;12.17;100.00;101644.88;4937227;29;20054;-66
2023/10/01 07:15:39;;;;;;;12.93;4.30;;;;;;;12.23;100.00;101646.13;4937255;29;20047;-64
2023/10/01 07:18:15;;;;;;;12.25;3.78;;;;;;;12.28;100.00;101651.91;4953931;29;20048;-61
2023/10/01 07:20:49;;;;;;;10.02;3.53;;;;;;;12.45;100.00;101658.34;4971526;28;20050;-68
2023/10/01 07:23:21;;;;;;;12.52;3.97;;;;;;;12.55;100.00;101657.28;4955578;28;20051;-69
2023/10/01 07:25:49;;;;;;;11.27;3.85;;;;;;;12.52;100.00;101664.81;4955268;28;20058;-70
2023/10/01 07:28:19;;;;;;;15.20;4.25;;;;;;;12.68;100.00;101667.69;4955539;28;20055;-70
2023/10/01 07:30:51;;;;;;;11.02;3.47;;;;;;;12.84;100.00;101665.22;4955124;28;20074;-71
2023/10/01 07:33:20;;;;;;;13.50;3.67;;;;;;;13.19;100.00;101663.53;4954452;28;20058;-69
2023/10/01 07:36:00;;;;;;;11.48;4.15;;;;;;;13.57;100.00;101672.28;4956283;28;20134;-70
2023/10/01 07:38:48;;;;;;;8.75;3.58;;;;;;;13.86;100.00;101665.78;4956313;28;20043;-70
2023/10/01 07:41:27;;;;;;;11.25;3.92;;;;;;;14.22;100.00;101678.13;4954150;28;20490;-70
2023/10/01 07:43:55;;;;;;;10.63;3.63;;;;;;;14.57;100.00;101681.66;4955461;28;20496;-70
2023/10/01 07:46:22;;;;;;;8.93;3.53;;;;;;;15.08;100.00;101676.22;4954587;28;20413;-70
2023/10/01 07:48:51;;;;;;;12.38;3.42;;;;;;;15.22;100.00;101676.44;4954991;28;20396;-71
2023/10/01 07:51:26;;;;;;;11.93;4.25;;;;;;;15.54;100.00;101673.91;4954028;28;20055;-69
2023/10/01 07:53:53;;;;;;;9.38;3.25;;;;;;;15.92;99.84;101678.63;4955217;28;20047;-70
2023/10/01 07:56:23;;;;;;;10.52;3.60;;;;;;;15.85;98.97;101683.03;4955532;28;20047;-70
2023/10/01 07:58:57;;;;;;;8.30;3.83;;;;;;;15.74;100.00;101683.38;4954685;28;20051;-70
2023/10/01 08:01:42;;;;;;;10.98;3.45;;;;;;;15.56;100.00;101677.28;4955264;28;20054;-69
2023/10/01 08:07:15;;;;;;;12.07;4.53;;;;;;;15.11;100.00;101668.63;4954664;28;20492;-70
2023/10/01 08:09:46;;;;;;;12.50;4.32;;;;;;;14.90;100.00;101671.81;4953904;28;20138;-69
2023/10/01 08:12:13;;;;;;;12.07;3.80;;;;;;;14.61;100.00;101666.81;4955210;28;20138;-70
2023/10/01 08:14:40;;;;;;;9.93;3.17;;;;;;;14.65;100.00;101662.78;4954694;28;20114;-68
2023/10/01 08:17:08;;;;;;;10.45;3.67;;;;;;;14.45;100.00;101662.19;4955931;28;20058;-69
2023/10/01 08:19:44;;;;;;;21.10;4.45;;;;;;;14.29;100.00;101659.44;4942713;28;20122;-69
2023/10/01 08:22:15;;;;;;;10.07;4.28;;;;;;;14.21;100.00;101664.78;4935584;28;20075;-70
2023/10/01 08:24:46;;;;;;;11.23;3.92;;;;;;;14.17;100.00;101656.16;4939093;28;20052;-62
2023/10/01 08:27:29;;;;;;;16.27;4.38;;;;;;;14.02;100.00;101660.50;4952041;29;20127;-62
2023/10/01 08:29:59;;;;;;;10.75;4.22;;;;;;;13.84;100.00;101663.25;4944929;29;20039;-65
2023/10/01 08:32:38;;;;;;;10.13;3.70;;;;;;;13.90;100.00;101661.75;4935491;29;20044;-65
2023/10/01 08:35:06;;;;;;;11.38;3.83;;;;;;;13.70;100.00;101661.06;4940694;29;20051;-63
2023/10/01 08:37:37;;;;;;;7.25;3.83;;;;;;;13.69;100.00;101665.63;4953232;29;20058;-63
2023/10/01 08:40:14;;;;;;;12.05;3.35;;;;;;;13.74;100.00;101670.56;4951832;29;20050;-64
2023/10/01 08:42:44;;;;;;;20.02;4.95;;;;;;;13.74;100.00;101671.41;4942376;29;20047;-70
2023/10/01 08:45:16;;;;;;;16.30;4.50;;;;;;;13.73;100.00;101675.09;4934985;29;20056;-67
2023/10/01 08:47:47;;;;;;;12.88;4.13;;;;;;;13.92;100.00;101671.38;4934761;29;20048;-66
2023/10/01 08:52:56;;;;;;;10.63;4.00;;;;;;;13.91;100.00;101674.22;4934700;29;20484;-67
2023/10/01 08:55:39;;;;;;;12.90;4.25;;;;;;;14.17;100.00;101676.91;4934612;29;20075;-66
2023/10/01 09:00:49;;;;;;;13.45;4.07;;;;;;;14.40;100.00;101675.34;4952023;29;20067;-62
2023/10/01 09:03:26;;;;;;;11.60;4.03;;;;;;;14.46;100.00;101682.81;4950002;29;20056;-64
2023/10/01 09:06:04;;;;;;;12.20;4.28;;;;;;;14.59;100.00;101676.09;4951690;29;20044;-62
2023/10/01 09:08:45;;;;;;;13.95;3.75;;;;;;;14.77;100.00;101677.72;4951914;29;20048;-64
2023/10/01 09:11:13;;;;;;;10.93;3.80;;;;;;;14.73;100.00;101670.09;4950985;29;20084;-70
2023/10/01 09:13:58;;;;;;;12.25;3.83;;;;;;;14.76;100.00;101669.75;4934816;29;20054;-71
2023/10/01 09:16:32;;;;;;;12.43;3.58;;;;;;;14.76;100.00;101672.47;4934764;29;20438;-71
2023/10/01 09:21:47;;;;;;;14.57;3.78;;;;;;;14.74;100.00;101671.78;4934224;29;20058;-69
2023/10/01 09:24:41;;;;;;;14.27;4.72;;;;;;;14.63;100.00;101670.19;4934583;29;20052;-69
2023/10/01 09:27:19;;;;;;;11.48;4.00;;;;;;;14.82;100.00;101673.66;4934603;29;20420;-70
2023/10/01 09:29:48;;;;;;;10.55;3.63;;;;;;;14.63;100.00;101680.16;4934549;29;20039;-69
2023/10/01 09:32:19;;;;;;;17.65;4.75;;;;;;;14.93;100.00;101666.09;4934547;29;20135;-69
2023/10/01 09:34:57;;;;;;;13.40;3.65;;;;;;;15.84;100.00;101661.53;4933917;29;20457;-69
2023/10/01 09:37:42;;;;;;;7.60;3.55;;;;;;;16.80;97.30;101660.53;4934534;29;20059;-71
2023/10/01 09:40:32;;;;;;;17.20;9.85;;;;;;;18.58;78.88;101663.63;4934211;29;20051;-69
2023/10/01 09:43:03;;;;;;;14.25;5.43;;;;;;;19.76;69.72;101649.53;4934141;29;20083;-69
2023/10/01 09:45:38;;;;;;;14.55;3.90;;;;;;;20.01;66.02;101635.47;4933761;29;20052;-70
2023/10/01 09:48:11;;;;;;;10.32;3.67;;;;;;;20.53;62.75;101634.06;4934442;29;20110;-69
2023/10/01 09:50:41;;;;;;;20.80;4.25;;;;;;;20.48;61.39;101645.56;4933761;29;20048;-70
2023/10/01 09:53:15;;;;;;;17.80;4.00;;;;;;;19.92;62.14;101637.50;4933881;29;20135;-71
2023/10/01 09:55:55;;;;;;;12.30;4.28;;;;;;;19.65;62.76;101637.28;4934071;29;20115;-68
2023/10/01 09:58:28;;;;;;;11.60;3.40;;;;;;;19.62;62.87;101632.28;4933726;29;20071;-69
2023/10/01 10:01:01;;;;;;;20.00;4.15;;;;;;;20.99;56.33;101634.19;4934387;29;20055;-69
2023/10/01 10:03:38;;;;;;;14.45;4.05;;;;;;;20.86;54.88;101635.00;4934427;29;20051;-69
2023/10/01 10:06:09;;;;;;;17.58;3.78;;;;;;;21.31;54.04;101629.81;4933712;29;20044;-70
2023/10/01 10:08:38;;;;;;;14.65;3.72;;;;;;;21.84;52.77;101637.19;4933791;29;20051;-68
2023/10/01 10:11:15;;;;;;;15.70;4.07;;;;;;;22.64;50.63;101634.19;4933055;28;20052;-69
2023/10/01 10:13:57;;;;;;;20.55;4.57;;;;;;;22.99;48.51;101638.19;4933654;29;20044;-70
2023/10/01 10:16:33;;;;;;;18.58;6.07;;;;;;;22.48;49.19;101638.25;4940671;29;20047;-63
2023/10/01 10:19:13;;;;;;;10.45;4.00;;;;;;;22.33;49.38;101639.34;4954358;28;20059;-64
2023/10/01 10:24:31;;;;;;;10.52;3.88;;;;;;;22.50;47.69;101641.63;4968006;28;20075;-66
2023/10/01 10:27:16;;;;;;;11.40;4.28;;;;;;;22.48;46.85;101652.78;4968349;28;20047;-62
2023/10/01 10:29:46;;;;;;;11.48;3.85;;;;;;;24.05;43.78;101649.31;4967298;28;20043;-64
2023/10/01 10:32:13;;;;;;;13.57;4.35;;;;;;;24.94;41.99;101647.75;4967906;28;20075;-63
2023/10/01 10:35:06;;;;;;;8.10;3.45;;;;;;;24.51;41.37;101650.66;4965829;28;20054;-63
2023/10/01 10:37:36;;;;;;;13.23;3.97;;;;;;;23.97;42.19;101648.53;4963968;28;20051;-65
2023/10/01 10:40:22;;;;;;;10.45;4.00;;;;;;;22.32;45.29;101645.88;4954067;28;20073;-67
2023/10/01 10:43:01;;;;;;;12.65;4.50;;;;;;;21.19;47.67;101647.91;4954085;28;20132;-65
2023/10/01 10:45:42;;;;;;;15.07;4.00;;;;;;;21.12;48.79;101641.59;4954391;28;20043;-65
2023/10/01 10:48:11;;;;;;;8.70;4.20;;;;;;;21.11;48.86;101631.69;4953807;28;20051;-65
2023/10/01 10:50:50;;;;;;;13.63;4.18;;;;;;;20.75;50.23;101626.59;4954402;28;20071;-65
2023/10/01 10:53:37;;;;;;;10.00;3.95;;;;;;;21.41;49.24;101632.16;4954828;28;20488;-66
2023/10/01 10:56:07;;;;;;;15.30;4.00;;;;;;;21.09;49.94;101631.06;4956029;28;20050;-63
2023/10/01 10:58:39;;;;;;;14.88;4.45;;;;;;;21.31;49.42;101632.56;4967860;28;20047;-62
2023/10/01 11:01:20;;;;;;;12.85;4.32;;;;;;;21.61;48.36;101637.59;4967733;28;20115;-62
2023/10/01 11:03:57;;;;;;;10.98;4.28;;;;;;;21.19;48.56;101636.97;4967736;28;20047;-62
2023/10/01 11:06:29;;;;;;;13.63;4.47;;;;;;;21.48;48.30;101632.16;4968001;28;20047;-62
2023/10/01 11:08:57;;;;;;;13.43;4.63;;;;;;;21.27;48.55;101636.75;4968134;28;20027;-62
2023/10/01 11:11:29;;;;;;;13.60;4.07;;;;;;;21.37;49.10;101631.72;4968066;29;20043;-64
2023/10/01 11:14:02;;;;;;;12.00;4.82;;;;;;;20.68;49.70;101637.47;4969133;28;20074;-65
2023/10/01 11:16:33;;;;;;;13.27;4.38;;;;;;;20.94;49.62;101635.84;4960546;28;20086;-67
2023/10/01 11:19:12;;;;;;;11.23;4.35;;;;;;;21.11;49.77;101634.44;4949162;28;20066;-65
2023/10/01 11:21:59;;;;;;;16.65;4.72;;;;;;;20.68;49.14;101632.03;4946772;29;20043;-65
2023/10/01 11:24:32;;;;;;;13.85;5.07;;;;;;;20.39;49.92;101628.53;4948481;28;20047;-65
2023/10/01 11:27:19;;;;;;;11.93;4.88;;;;;;;19.90;51.18;101618.66;4948507;28;20059;-68
2023/10/01 11:30:17;;;;;;;14.88;4.72;;;;;;;19.94;51.90;101617.22;4948185;28;20059;-62
2023/10/01 11:32:58;;;;;;;13.90;4.57;;;;;;;20.08;51.79;101615.41;4947130;29;20043;-62
2023/10/01 11:35:32;;;;;;;14.45;4.65;;;;;;;19.77;52.07;101620.47;4946961;28;20048;-62
2023/10/01 11:38:11;;;;;;;19.92;4.65;;;;;;;19.41;52.77;101611.34;4945676;29;20055;-64
2023/10/01 11:43:35;;;;;;;13.68;4.78;;;;;;;19.11;54.21;101607.16;4947428;29;20054;-63
2023/10/01 11:46:23;;;;;;;11.38;4.18;;;;;;;19.01;54.81;101611.03;4946536;29;20044;-64
2023/10/01 11:49:02;;;;;;;11.15;4.57;;;;;;;19.39;54.32;101610.72;4947812;29;20372;-64
2023/10/01 11:51:31;;;;;;;11.88;4.88;;;;;;;19.44;53.78;101621.00;4950176;28;20072;-66
2023/10/01 11:54:14;;;;;;;13.75;4.28;;;;;;;19.36;54.26;101613.00;4950565;28;20103;-62
2023/10/01 11:57:04;;;;;;;16.98;4.30;;;;;;;19.36;55.59;101602.94;4949925;29;20051;-63
2023/10/01 11:59:32;;;;;;;10.75;4.40;;;;;;;19.09;56.40;101614.66;4950170;28;20055;-63
2023/10/01 12:04:44;;;;;;;13.35;4.90;;;;;;;18.42;58.84;101607.63;4949293;29;20058;-63
2023/10/01 12:07:16;;;;;;;12.02;4.65;;;;;;;18.58;59.10;101606.56;4950469;28;20058;-63
2023/10/01 12:09:49;;;;;;;9.48;4.18;;;;;;;18.76;59.23;101612.41;4951000;28;20047;-63
2023/10/01 12:12:18;;;;;;;13.68;4.80;;;;;;;18.49;60.26;101603.13;4950820;28;20071;-64
2023/10/01 12:17:30;;;;;;;18.00;4.68;;;;;;;18.58;61.20;101601.94;4935651;29;20048;-67
2023/10/01 12:20:01;;;;;;;9.70;4.13;;;;;;;18.51;60.90;101607.34;4951808;28;20043;-66
2023/10/01 12:22:29;;;;;;;10.88;4.22;;;;;;;18.28;62.59;101615.63;4954771;28;20102;-67
2023/10/01 12:24:57;;;;;;;16.98;4.82;;;;;;;18.00;62.62;101618.16;4954868;28;20055;-66
2023/10/01 12:27:38;;;;;;;20.65;5.20;;;;;;;17.97;62.44;101604.09;4955450;28;20439;-66
2023/10/01 12:30:10;;;;;;;10.85;4.65;;;;;;;18.19;62.15;101608.59;4954012;28;20039;-66
2023/10/01 12:32:42;;;;;;;10.90;4.13;;;;;;;18.34;62.54;101600.41;4952893;28;20074;-67